Time;durP1;ratioP1;P1;durP2;ratioP2;P2;SDS_P1;SDS_P2;PMS_P1;PMS_P2;Temp;Humidity;BMP_temperature;BMP_pressure;BME280_temperature;BME280_humidity;BME280_pressure;Samples;Min_cycle;Max_cycle;Signal;HPM_P1;HPM_P2
2021/12/13 00:00:20;;;;;;;152.90;64.80;;;;;;;-4.60;84.96;99192.06;103501;1319;137704;-83
2021/12/13 00:03:12;;;;;;;175.60;70.00;;;;;;;-4.59;85.26;99198.88;103241;1322;24253;-83
2021/12/13 00:06:07;;;;;;;184.70;75.00;;;;;;;-4.58;85.86;99202.19;103319;1325;138466;-83
2021/12/13 00:08:38;;;;;;;151.10;64.70;;;;;;;-4.57;85.59;99199.63;103425;1323;24743;-84
2021/12/13 00:11:19;;;;;;;160.80;64.40;;;;;;;-4.56;85.33;99206.13;103317;1319;138384;-84
2021/12/13 00:13:54;;;;;;;162.70;65.20;;;;;;;-4.54;85.56;99211.23;103305;1325;24227;-83
2021/12/13 00:16:32;;;;;;;169.60;66.90;;;;;;;-4.52;85.32;99207.59;103755;1322;22615;-84
2021/12/13 00:19:08;;;;;;;161.00;67.10;;;;;;;-4.52;85.38;99206.14;103386;1323;137488;-84
2021/12/13 00:21:41;;;;;;;175.60;67.20;;;;;;;-4.53;85.08;99211.16;103731;1319;22606;-84
2021/12/13 00:24:12;;;;;;;161.30;69.00;;;;;;;-4.57;84.79;99215.38;103359;1316;138115;-83
2021/12/13 00:26:47;;;;;;;161.40;67.20;;;;;;;-4.58;85.08;99209.61;103639;1319;22603;-84
2021/12/13 00:29:19;;;;;;;156.50;63.10;;;;;;;-4.57;84.98;99208.27;103403;1323;138817;-84
2021/12/13 00:31:46;;;;;;;157.90;65.20;;;;;;;-4.53;85.40;99206.44;103416;1321;22841;-84
2021/12/13 00:34:33;;;;;;;161.10;65.50;;;;;;;-4.52;85.11;99205.10;103439;1318;22655;-84
2021/12/13 00:37:15;;;;;;;145.50;65.60;;;;;;;-4.52;85.13;99209.14;103258;1316;137115;-84
2021/12/13 00:39:50;;;;;;;182.80;70.80;;;;;;;-4.53;85.24;99211.85;103603;1319;22616;-83
2021/12/13 00:42:20;;;;;;;180.00;71.90;;;;;;;-4.55;85.51;99204.06;103436;1323;137938;-84
2021/12/13 00:44:52;;;;;;;161.70;69.40;;;;;;;-4.55;85.81;99207.98;103510;1321;22579;-83
2021/12/13 00:47:25;;;;;;;158.70;66.90;;;;;;;-4.52;85.91;99209.81;103370;1319;138505;-84
2021/12/13 00:49:59;;;;;;;167.20;67.80;;;;;;;-4.49;86.04;99211.39;103536;1319;25201;-84
2021/12/13 00:52:30;;;;;;;176.70;67.70;;;;;;;-4.50;85.53;99204.23;103383;1325;22629;-84
2021/12/13 00:54:58;;;;;;;163.40;67.50;;;;;;;-4.53;85.62;99200.23;103106;1321;137594;-83
2021/12/13 00:57:49;;;;;;;152.50;62.60;;;;;;;-4.59;85.13;99200.65;103513;1318;22607;-84
2021/12/13 01:00:29;;;;;;;160.00;60.80;;;;;;;-4.72;84.52;99198.41;103735;1323;137839;-84
2021/12/13 01:03:04;;;;;;;159.00;63.50;;;;;;;-4.88;84.37;99199.39;103650;1319;22599;-84
2021/12/13 01:05:56;;;;;;;138.50;58.70;;;;;;;-5.03;84.39;99207.52;103322;1318;138363;-84
2021/12/13 01:08:42;;;;;;;147.10;59.30;;;;;;;-5.15;84.69;99209.77;103525;1319;24382;-84
2021/12/13 01:11:16;;;;;;;138.70;55.70;;;;;;;-5.21;85.15;99206.20;103492;1322;137877;-83
2021/12/13 01:14:08;;;;;;;156.50;61.60;;;;;;;-5.28;85.59;99204.98;103554;1318;22589;-83
2021/12/13 01:17:02;;;;;;;164.80;63.70;;;;;;;-5.31;86.11;99212.70;103677;1319;22597;-84
2021/12/13 01:19:58;;;;;;;155.80;64.60;;;;;;;-5.36;86.01;99215.52;103695;1319;22516;-84
2021/12/13 01:25:48;;;;;;;147.50;57.90;;;;;;;-5.34;86.42;99209.00;103369;1319;138748;-84
2021/12/13 01:28:21;;;;;;;154.50;60.20;;;;;;;-5.35;86.38;99211.73;103532;1316;25309;-84
2021/12/13 01:31:10;;;;;;;151.70;59.80;;;;;;;-5.36;86.24;99208.09;103393;1316;137728;-85
2021/12/13 01:33:43;;;;;;;152.30;57.10;;;;;;;-5.38;86.18;99205.27;103587;1316;22709;-84
2021/12/13 01:36:23;;;;;;;155.50;62.90;;;;;;;-5.41;86.39;99211.90;103493;1322;137986;-84
2021/12/13 01:38:55;;;;;;;142.80;59.30;;;;;;;-5.43;86.26;99215.95;103539;1322;22644;-83
2021/12/13 01:41:28;;;;;;;133.20;52.00;;;;;;;-5.43;86.16;99214.17;103338;1324;138513;-84
2021/12/13 01:44:11;;;;;;;135.50;51.20;;;;;;;-5.44;86.56;99214.09;103617;1318;22745;-83
2021/12/13 01:46:43;;;;;;;116.90;49.60;;;;;;;-5.43;87.34;99213.61;103706;1318;22590;-84
2021/12/13 01:49:11;;;;;;;124.30;51.10;;;;;;;-5.42;87.24;99208.42;103661;1319;139308;-84
2021/12/13 01:51:39;;;;;;;126.10;54.90;;;;;;;-5.41;87.53;99198.27;103497;1316;22566;-83
2021/12/13 01:54:13;;;;;;;128.70;54.90;;;;;;;-5.39;87.26;99196.52;103355;1316;138978;-84
2021/12/13 02:00:07;;;;;;;112.70;46.20;;;;;;;-5.32;87.64;99198.59;103409;1318;138506;-83
2021/12/13 02:02:44;;;;;;;117.30;47.00;;;;;;;-5.31;87.21;99190.36;103833;1319;24253;-82
2021/12/13 02:05:14;;;;;;;115.70;45.00;;;;;;;-5.31;87.15;99193.94;103438;1319;138636;-82
2021/12/13 02:07:50;;;;;;;115.20;47.00;;;;;;;-5.30;87.03;99195.30;103597;1318;22652;-82
2021/12/13 02:10:37;;;;;;;116.60;49.40;;;;;;;-5.29;87.30;99185.06;103702;1316;22574;-82
2021/12/13 02:13:10;;;;;;;113.20;50.00;;;;;;;-5.24;86.99;99173.55;103439;1319;138699;-82
2021/12/13 02:18:31;;;;;;;114.40;48.60;;;;;;;-5.13;87.50;99165.50;103751;1323;138486;-82
2021/12/13 02:21:07;;;;;;;114.40;47.60;;;;;;;-5.08;87.52;99163.86;103461;1323;24476;-82
2021/12/13 02:23:43;;;;;;;115.70;48.20;;;;;;;-5.06;87.29;99161.05;103504;1319;137887;-83
2021/12/13 02:26:12;;;;;;;117.60;51.90;;;;;;;-5.04;86.87;99154.17;103637;1319;25252;-81
2021/12/13 02:28:43;;;;;;;113.60;50.10;;;;;;;-5.05;86.27;99160.27;103658;1323;25255;-84
2021/12/13 02:31:23;;;;;;;133.00;54.20;;;;;;;-5.05;85.61;99162.74;103615;1316;138459;-82
2021/12/13 02:34:04;;;;;;;152.90;55.40;;;;;;;-5.06;85.38;99161.81;103653;1319;31943;-82
2021/12/13 02:36:52;;;;;;;134.40;54.30;;;;;;;-5.06;85.22;99161.73;103527;1318;138205;-82
2021/12/13 02:39:30;;;;;;;126.20;52.50;;;;;;;-5.06;84.80;99166.73;103489;1319;25316;-82
2021/12/13 02:41:59;;;;;;;133.30;49.30;;;;;;;-5.09;84.69;99167.00;103367;1323;137995;-82
2021/12/13 02:44:38;;;;;;;129.90;50.80;;;;;;;-5.11;84.74;99170.52;103574;1321;22718;-82
2021/12/13 02:47:19;;;;;;;114.80;46.00;;;;;;;-5.15;84.71;99172.25;103505;1318;138282;-82
2021/12/13 02:49:48;;;;;;;117.30;49.70;;;;;;;-5.22;84.33;99173.84;103482;1316;25277;-82
2021/12/13 02:52:19;;;;;;;108.50;45.60;;;;;;;-5.25;84.50;99178.76;103726;1323;22703;-82
2021/12/13 02:54:54;;;;;;;108.10;44.40;;;;;;;-5.26;84.51;99174.38;103427;1323;138579;-82
2021/12/13 02:57:45;;;;;;;115.30;44.70;;;;;;;-5.26;84.57;99170.67;103440;1325;25420;-82
2021/12/13 03:00:21;;;;;;;102.00;40.70;;;;;;;-5.23;84.83;99168.66;103726;1316;137788;-82
2021/12/13 03:02:53;;;;;;;100.50;41.70;;;;;;;-5.23;84.41;99170.25;103570;1318;22618;-82
2021/12/13 03:05:29;;;;;;;105.60;43.90;;;;;;;-5.23;84.53;99173.43;103452;1323;138188;-81
2021/12/13 03:08:06;;;;;;;109.70;43.40;;;;;;;-5.26;84.65;99170.30;103536;1319;23847;-82
2021/12/13 03:10:39;;;;;;;101.90;44.60;;;;;;;-5.29;84.33;99170.42;103292;1321;22640;-82
2021/12/13 03:13:07;;;;;;;96.10;44.40;;;;;;;-5.27;84.52;99178.58;103168;1326;138734;-82
2021/12/13 03:15:36;;;;;;;90.00;41.10;;;;;;;-5.28;84.10;99178.95;103364;1319;22669;-82
2021/12/13 03:18:15;;;;;;;103.70;43.60;;;;;;;-5.30;83.87;99174.02;103640;1318;137769;-82
2021/12/13 03:20:56;;;;;;;;;;;;;;;-5.34;83.62;99175.05;104060;1318;22659;-82
2021/12/13 03:23:46;;;;;;;93.30;41.50;;;;;;;-5.38;83.89;99174.31;103686;1318;123763;-82
2021/12/13 03:26:45;;;;;;;112.40;45.70;;;;;;;-5.38;84.09;99177.52;104161;1316;23390;-82
2021/12/13 03:29:25;;;;;;;107.40;46.60;;;;;;;-5.42;83.78;99176.04;103653;1319;138198;-83
2021/12/13 03:31:57;;;;;;;103.00;44.90;;;;;;;-5.51;83.12;99178.36;103590;1316;22631;-82
2021/12/13 03:34:35;;;;;;;106.10;44.10;;;;;;;-5.62;82.41;99180.16;103589;1323;22577;-81
2021/12/13 03:37:13;;;;;;;99.20;41.00;;;;;;;-5.79;81.89;99181.35;104022;1319;139195;-83
2021/12/13 03:39:43;;;;;;;97.90;42.00;;;;;;;-5.88;82.49;99181.88;104084;1319;25521;-83
2021/12/13 03:42:16;;;;;;;94.40;40.90;;;;;;;-5.91;82.75;99185.80;103615;1319;138051;-83
2021/12/13 03:44:48;;;;;;;104.40;41.40;;;;;;;-5.96;82.85;99184.49;103929;1322;22575;-83
2021/12/13 03:47:25;;;;;;;102.40;40.10;;;;;;;-6.00;83.05;99187.77;103702;1319;139163;-83
2021/12/13 03:50:00;;;;;;;114.10;44.40;;;;;;;-6.02;83.27;99185.83;103338;1319;27568;-83
2021/12/13 03:52:45;;;;;;;105.40;44.70;;;;;;;-6.04;83.34;99184.94;103486;1322;22711;-83
2021/12/13 03:55:18;;;;;;;89.90;39.30;;;;;;;-6.01;83.73;99188.80;103311;1322;138751;-83
2021/12/13 03:58:08;;;;;;;92.30;40.40;;;;;;;-5.98;83.77;99186.43;103856;1319;22601;-83
2021/12/13 04:00:48;;;;;;;97.80;40.60;;;;;;;-5.95;84.19;99183.45;104632;1316;137648;-83
2021/12/13 04:03:17;;;;;;;97.00;38.10;;;;;;;-5.91;84.38;99187.76;103402;1321;23097;-83
2021/12/13 04:05:48;;;;;;;92.20;38.30;;;;;;;-5.87;84.39;99186.97;103123;1321;138022;-82
2021/12/13 04:08:19;;;;;;;90.10;38.50;;;;;;;-5.83;84.52;99195.45;103247;1318;330902;-83
2021/12/13 04:11:08;;;;;;;94.10;40.80;;;;;;;-5.80;84.32;99200.72;103357;1320;25442;-83
2021/12/13 04:13:55;;;;;;;73.10;33.80;;;;;;;-5.78;84.42;99207.73;103465;1318;138215;-83
2021/12/13 04:16:46;;;;;;;76.70;34.50;;;;;;;-5.74;84.12;99204.45;103714;1316;25242;-83
2021/12/13 04:19:21;;;;;;;79.20;32.40;;;;;;;-5.72;84.15;99199.16;103267;1319;137624;-84
2021/12/13 04:22:10;;;;;;;74.00;31.90;;;;;;;-5.72;83.95;99198.42;103374;1319;25310;-84
2021/12/13 04:24:49;;;;;;;72.80;30.80;;;;;;;-5.73;84.18;99193.05;103263;1320;138210;-84
2021/12/13 04:27:36;;;;;;;78.30;30.50;;;;;;;-5.74;83.69;99199.10;103428;1318;25392;-84
2021/12/13 04:30:44;;;;;;;65.70;30.60;;;;;;;-5.76;84.02;99204.83;103329;1318;138048;-83
2021/12/13 04:33:21;;;;;;;78.90;33.50;;;;;;;-5.80;84.16;99206.54;103248;1325;22645;-84
2021/12/13 04:35:51;;;;;;;83.00;34.80;;;;;;;-5.89;83.68;99206.70;103528;1322;138556;-84
2021/12/13 04:38:25;;;;;;;75.70;34.60;;;;;;;-5.95;83.05;99207.17;103238;1325;24278;-84
2021/12/13 04:40:54;;;;;;;66.80;30.30;;;;;;;-5.99;83.63;99210.33;103307;1323;23040;-84
2021/12/13 04:43:23;;;;;;;69.00;25.80;;;;;;;-6.01;83.42;99213.84;103081;1316;137801;-84
2021/12/13 04:45:58;;;;;;;75.50;30.20;;;;;;;-6.02;84.13;99214.48;103343;1322;25732;-84
2021/12/13 04:48:32;;;;;;;71.00;28.40;;;;;;;-6.04;83.96;99211.08;102895;1325;137855;-85
2021/12/13 04:51:07;;;;;;;76.00;32.60;;;;;;;-6.02;84.36;99212.90;103174;1321;22608;-83
2021/12/13 04:53:42;;;;;;;76.90;34.60;;;;;;;-5.99;84.52;99213.73;103134;1324;138207;-84
2021/12/13 04:56:13;;;;;;;87.30;36.70;;;;;;;-5.95;84.31;99217.23;103242;1321;24218;-82
2021/12/13 04:58:45;;;;;;;87.40;36.80;;;;;;;-5.92;84.32;99213.60;103282;1323;25259;-82
2021/12/13 05:01:18;;;;;;;105.50;43.70;;;;;;;-5.89;84.56;99207.08;102911;1324;137665;-82
2021/12/13 05:03:53;;;;;;;104.80;44.80;;;;;;;-5.88;84.18;99201.00;103416;1322;25395;-84
2021/12/13 05:06:40;;;;;;;104.70;41.00;;;;;;;-5.91;84.70;99199.80;103013;1320;140638;-83
2021/12/13 05:09:12;;;;;;;74.40;34.50;;;;;;;-5.92;84.68;99195.77;103554;1319;23122;-85
2021/12/13 05:11:43;;;;;;;83.00;36.00;;;;;;;-5.94;83.72;99196.89;103340;1319;139263;-83
2021/12/13 05:14:12;;;;;;;86.50;35.40;;;;;;;-5.97;83.86;99194.79;103481;1319;22584;-83
2021/12/13 05:16:53;;;;;;;87.30;36.40;;;;;;;-5.95;84.32;99194.65;103250;1325;22599;-83
2021/12/13 05:19:53;;;;;;;90.30;35.80;;;;;;;-5.92;84.49;99195.03;103367;1319;137511;-83
2021/12/13 05:22:22;;;;;;;85.10;37.10;;;;;;;-5.91;84.17;99198.55;103550;1319;23985;-83
2021/12/13 05:24:55;;;;;;;94.80;39.20;;;;;;;-5.91;84.44;99207.22;103498;1318;137824;-84
2021/12/13 05:27:41;;;;;;;98.50;43.10;;;;;;;-5.91;84.52;99204.18;103793;1318;22615;-85
2021/12/13 05:30:23;;;;;;;92.00;42.00;;;;;;;-5.88;84.32;99210.56;103940;1317;138392;-83
2021/12/13 05:32:56;;;;;;;92.10;40.00;;;;;;;-5.84;84.41;99209.69;104240;1317;25242;-83
2021/12/13 05:35:28;;;;;;;111.80;45.10;;;;;;;-5.80;84.63;99213.98;105121;1318;138454;-83
2021/12/13 05:38:00;;;;;;;110.30;45.90;;;;;;;-5.77;84.79;99218.15;104648;1319;22689;-84
2021/12/13 05:40:47;;;;;;;114.70;47.20;;;;;;;-5.74;84.71;99221.73;104971;1318;25257;-83
2021/12/13 05:43:32;;;;;;;108.70;43.40;;;;;;;-5.72;84.85;99226.39;104830;1316;137905;-83
2021/12/13 05:46:06;;;;;;;113.30;49.90;;;;;;;-5.72;84.30;99232.72;104908;1318;22626;-83
2021/12/13 05:48:45;;;;;;;104.10;45.70;;;;;;;-5.70;84.30;99233.67;104773;1317;138937;-83
2021/12/13 05:51:46;;;;;;;106.50;46.00;;;;;;;-5.65;84.57;99229.74;104670;1318;22647;-83
2021/12/13 05:54:30;;;;;;;113.70;47.80;;;;;;;-5.61;84.18;99237.23;105128;1320;138599;-84
2021/12/13 05:57:07;;;;;;;115.90;48.40;;;;;;;-5.60;84.10;99246.48;103976;1316;22563;-83
2021/12/13 05:59:40;;;;;;;116.90;47.40;;;;;;;-5.61;83.68;99243.19;103890;1319;138741;-83
2021/12/13 06:02:30;;;;;;;116.10;48.20;;;;;;;-5.63;83.93;99252.92;103490;1319;24212;-84
2021/12/13 06:05:14;;;;;;;107.70;45.60;;;;;;;-5.63;83.98;99249.16;104062;1319;22664;-83
2021/12/13 06:07:42;;;;;;;108.20;50.30;;;;;;;-5.65;83.94;99250.28;103676;1324;137821;-84
2021/12/13 06:10:18;;;;;;;111.70;49.70;;;;;;;-5.65;84.04;99253.95;104547;1319;22598;-84
2021/12/13 06:12:54;;;;;;;102.30;47.00;;;;;;;-5.63;84.03;99256.60;103661;1320;137962;-84
2021/12/13 06:15:34;;;;;;;111.50;47.20;;;;;;;-5.60;83.68;99258.69;103818;1319;22626;-83
2021/12/13 06:18:04;;;;;;;103.10;46.20;;;;;;;-5.58;83.82;99260.00;103777;1320;137883;-84
2021/12/13 06:20:33;;;;;;;111.70;47.30;;;;;;;-5.57;83.76;99259.71;103857;1319;22587;-84
2021/12/13 06:23:08;;;;;;;117.20;45.80;;;;;;;-5.58;83.72;99261.70;104116;1320;22613;-84
2021/12/13 06:25:37;;;;;;;114.40;48.40;;;;;;;-5.59;83.55;99269.38;103788;1316;139664;-84
2021/12/13 06:28:15;;;;;;;119.30;51.90;;;;;;;-5.59;83.73;99268.89;103691;1321;22605;-84
2021/12/13 06:30:42;;;;;;;104.90;48.50;;;;;;;-5.60;83.31;99274.42;104371;1321;138529;-84
2021/12/13 06:33:15;;;;;;;107.20;45.90;;;;;;;-5.60;83.44;99276.06;105314;1321;22494;-84
2021/12/13 06:35:51;;;;;;;119.20;48.30;;;;;;;-5.59;83.42;99275.97;105381;1318;138971;-84
2021/12/13 06:38:27;;;;;;;113.10;48.20;;;;;;;-5.57;83.34;99277.23;105358;1319;25374;-83
2021/12/13 06:41:00;;;;;;;115.70;48.00;;;;;;;-5.57;83.32;99283.91;105138;1319;22732;-84
2021/12/13 06:43:40;;;;;;;119.50;48.90;;;;;;;-5.56;83.52;99284.22;105311;1316;137931;-84
2021/12/13 06:46:28;;;;;;;110.90;48.60;;;;;;;-5.55;83.56;99296.30;104836;1316;22732;-84
2021/12/13 06:49:21;;;;;;;113.90;51.20;;;;;;;-5.52;83.40;99298.56;105327;1319;138650;-84
2021/12/13 06:51:54;;;;;;;110.30;47.60;;;;;;;-5.51;83.13;99301.33;105098;1318;23512;-84
2021/12/13 06:54:49;;;;;;;112.20;48.20;;;;;;;-5.48;83.48;99298.08;104219;1319;141092;-84
2021/12/13 06:57:21;;;;;;;117.80;50.10;;;;;;;-5.40;83.47;99305.23;103727;1318;22645;-83
2021/12/13 06:59:56;;;;;;;110.10;50.90;;;;;;;-5.38;83.51;99300.83;103740;1320;138598;-83
2021/12/13 07:02:24;;;;;;;113.30;49.00;;;;;;;-5.38;83.27;99298.81;105343;1319;22623;-84
2021/12/13 07:04:57;;;;;;;119.50;48.60;;;;;;;-5.35;83.46;99300.77;104042;1316;25233;-84
2021/12/13 07:07:38;;;;;;;110.90;50.40;;;;;;;-5.34;83.35;99297.65;103665;1316;138014;-84
2021/12/13 07:10:44;;;;;;;122.40;55.40;;;;;;;-5.32;83.25;99304.96;103775;1316;26237;-84
2021/12/13 07:13:35;;;;;;;120.90;52.20;;;;;;;-5.29;82.99;99302.64;103883;1316;138593;-84
2021/12/13 07:16:13;;;;;;;121.00;51.70;;;;;;;-5.25;83.17;99309.02;103879;1316;22651;-84
2021/12/13 07:18:49;;;;;;;127.10;54.20;;;;;;;-5.19;83.43;99307.40;104214;1316;137656;-84
2021/12/13 07:21:26;;;;;;;137.30;57.60;;;;;;;-5.10;83.42;99316.10;103812;1321;24816;-84
2021/12/13 07:24:07;;;;;;;135.80;55.80;;;;;;;-5.04;83.55;99321.30;103717;1320;138288;-84
2021/12/13 07:26:52;;;;;;;109.40;46.20;;;;;;;-5.03;83.10;99323.16;104033;1316;24483;-84
2021/12/13 07:29:29;;;;;;;102.70;45.60;;;;;;;-5.08;82.50;99323.55;103634;1318;138155;-84
2021/12/13 07:32:21;;;;;;;109.30;43.70;;;;;;;-5.12;82.33;99334.36;103990;1319;25242;-84
2021/12/13 07:34:53;;;;;;;104.00;42.60;;;;;;;-5.23;81.71;99339.44;103895;1316;140350;-84
2021/12/13 07:37:40;;;;;;;109.30;48.20;;;;;;;-5.29;81.86;99346.50;103855;1316;22616;-84
2021/12/13 07:40:40;;;;;;;116.70;50.40;;;;;;;-5.30;82.13;99351.02;103549;1323;138597;-84
2021/12/13 07:43:14;;;;;;;102.40;45.70;;;;;;;-5.30;82.31;99353.10;103887;1323;22649;-84
2021/12/13 07:46:09;;;;;;;107.60;47.10;;;;;;;-5.24;82.49;99349.10;103086;1327;138513;-85
2021/12/13 07:48:45;;;;;;;110.80;45.30;;;;;;;-5.16;82.51;99351.09;103395;1326;22590;-84
2021/12/13 07:51:26;;;;;;;104.90;45.90;;;;;;;-5.07;82.75;99346.65;103543;1325;137800;-84
2021/12/13 07:54:14;;;;;;;116.20;45.90;;;;;;;-4.96;83.56;99350.23;103432;1325;22768;-84
2021/12/13 07:56:57;;;;;;;108.00;45.20;;;;;;;-4.91;82.63;99353.52;103568;1325;138397;-84
2021/12/13 07:59:30;;;;;;;106.60;44.70;;;;;;;-4.93;82.15;99354.07;104476;1318;22627;-84
2021/12/13 08:02:08;;;;;;;111.90;49.50;;;;;;;-4.94;82.70;99352.77;103809;1318;25256;-84
2021/12/13 08:04:36;;;;;;;108.70;50.30;;;;;;;-4.91;82.65;99353.38;103657;1322;138567;-84
2021/12/13 08:07:25;;;;;;;103.50;49.60;;;;;;;-4.89;82.27;99352.71;103570;1320;138317;-84
2021/12/13 08:09:58;;;;;;;103.30;46.30;;;;;;;-4.82;82.84;99344.81;103655;1325;23356;-84
2021/12/13 08:12:30;;;;;;;111.00;47.00;;;;;;;-4.75;82.71;99350.45;103734;1320;137878;-84
2021/12/13 08:15:14;;;;;;;103.50;42.80;;;;;;;-4.75;82.38;99354.89;103690;1323;22587;-84
2021/12/13 08:17:51;;;;;;;101.40;43.60;;;;;;;-4.80;82.28;99357.59;103349;1322;22630;-84
2021/12/13 08:20:32;;;;;;;106.80;47.00;;;;;;;-4.82;82.54;99354.90;103503;1325;138033;-83
2021/12/13 08:23:02;;;;;;;108.50;51.60;;;;;;;-4.82;82.85;99354.35;103580;1323;25331;-84
2021/12/13 08:25:37;;;;;;;108.80;50.40;;;;;;;-4.79;82.81;99358.72;103418;1321;138638;-83
2021/12/13 08:28:13;;;;;;;112.00;51.30;;;;;;;-4.74;82.72;99356.27;103462;1316;25329;-84
2021/12/13 08:30:57;;;;;;;108.70;47.30;;;;;;;-4.70;83.02;99362.30;103463;1316;137961;-84
2021/12/13 08:33:32;;;;;;;126.50;53.00;;;;;;;-4.60;83.40;99366.93;103626;1320;24449;-84
2021/12/13 08:36:07;;;;;;;118.10;52.20;;;;;;;-4.48;83.20;99367.63;104252;1322;22631;-84
2021/12/13 08:38:56;;;;;;;131.40;55.80;;;;;;;-4.39;83.26;99365.07;103897;1325;137830;-84
2021/12/13 08:41:39;;;;;;;147.50;62.70;;;;;;;-4.28;83.62;99370.52;103992;1321;23994;-83
2021/12/13 08:44:10;;;;;;;145.50;63.90;;;;;;;-4.14;83.82;99372.92;103607;1324;138525;-83
2021/12/13 08:47:00;;;;;;;151.20;64.30;;;;;;;-3.99;83.72;99373.24;103898;1324;31699;-84
2021/12/13 08:49:29;;;;;;;153.60;65.30;;;;;;;-3.83;83.16;99376.55;104086;1322;137679;-84
2021/12/13 08:52:13;;;;;;;157.70;67.00;;;;;;;-3.71;83.41;99384.56;104164;1325;22587;-84
2021/12/13 08:54:53;;;;;;;156.30;69.60;;;;;;;-3.62;82.95;99384.64;104483;1319;138343;-84
2021/12/13 08:57:30;;;;;;;163.40;68.90;;;;;;;-3.51;83.31;99385.72;104005;1321;22731;-84
2021/12/13 08:59:59;;;;;;;150.00;67.00;;;;;;;-3.43;83.17;99383.58;103935;1319;25239;-84
2021/12/13 09:02:34;;;;;;;160.70;69.80;;;;;;;-3.36;82.85;99378.36;104356;1325;139481;-84
2021/12/13 09:05:11;;;;;;;156.40;65.90;;;;;;;-3.33;82.18;99376.89;103783;1324;22632;-84
2021/12/13 09:08:05;;;;;;;149.90;65.10;;;;;;;-3.29;82.11;99374.86;104016;1319;137861;-84
2021/12/13 09:10:55;;;;;;;146.90;66.40;;;;;;;-3.18;82.61;99374.54;104130;1320;25262;-83
2021/12/13 09:13:51;;;;;;;138.90;64.10;;;;;;;-3.09;82.77;99373.14;104328;1323;138040;-83
2021/12/13 09:16:23;;;;;;;152.20;65.40;;;;;;;-3.04;82.01;99367.22;103619;1319;22836;-84
2021/12/13 09:19:21;;;;;;;154.50;68.60;;;;;;;-2.99;82.13;99362.71;103687;1322;137918;-83
2021/12/13 09:22:10;;;;;;;150.90;66.60;;;;;;;-2.94;81.78;99358.86;104047;1321;23958;-84
2021/12/13 09:24:47;;;;;;;142.20;64.40;;;;;;;-2.88;81.78;99362.06;104377;1324;138713;-83
2021/12/13 09:27:38;;;;;;;150.50;65.90;;;;;;;-2.81;81.53;99365.23;103570;1322;22584;-84
2021/12/13 09:30:23;;;;;;;150.10;65.50;;;;;;;-2.74;81.39;99368.30;103644;1321;22684;-84
2021/12/13 09:33:07;;;;;;;147.80;65.70;;;;;;;-2.66;81.30;99365.98;103499;1319;137628;-84
2021/12/13 09:35:40;;;;;;;163.70;67.60;;;;;;;-2.58;81.13;99364.76;103728;1325;143716;-85
2021/12/13 09:38:25;;;;;;;159.60;67.00;;;;;;;-2.55;81.27;99354.71;103468;1323;24383;-84
2021/12/13 09:41:27;;;;;;;157.40;68.70;;;;;;;-2.56;80.91;99349.77;103604;1319;137883;-83
2021/12/13 09:44:20;;;;;;;157.30;70.50;;;;;;;-2.51;81.51;99342.20;103563;1325;29559;-82
2021/12/13 09:46:52;;;;;;;157.80;72.00;;;;;;;-2.44;81.71;99336.61;103835;1318;138346;-82
2021/12/13 09:49:40;;;;;;;141.80;67.50;;;;;;;-2.38;81.48;99339.29;104137;1318;22600;-83
2021/12/13 09:52:14;;;;;;;142.90;65.30;;;;;;;-2.34;81.18;99337.46;103586;1324;138317;-87
2021/12/13 09:55:16;;;;;;;145.60;63.30;;;;;;;-2.36;81.09;99336.62;103478;1322;22643;-81
2021/12/13 09:58:05;;;;;;;154.30;67.70;;;;;;;-2.40;81.41;99338.41;102832;1323;145166;-85
2021/12/13 10:01:02;;;;;;;146.70;61.50;;;;;;;-2.36;82.07;99338.39;103480;1323;25355;-84
2021/12/13 10:03:42;;;;;;;129.80;55.00;;;;;;;-2.32;82.01;99336.09;103638;1324;24352;-81
2021/12/13 10:06:10;;;;;;;158.60;70.40;;;;;;;-2.31;82.09;99334.72;103176;1319;138300;-81
2021/12/13 10:08:45;;;;;;;154.60;70.00;;;;;;;-2.32;82.01;99335.71;103676;1321;24351;-84
2021/12/13 10:11:36;;;;;;;155.70;66.00;;;;;;;-2.30;81.96;99337.13;103639;1319;138470;-82
2021/12/13 10:14:05;;;;;;;141.20;62.80;;;;;;;-2.27;82.24;99339.34;103835;1319;24457;-83
2021/12/13 10:16:36;;;;;;;132.50;59.50;;;;;;;-2.19;82.56;99346.27;103556;1319;137861;-83
2021/12/13 10:19:08;;;;;;;141.20;63.60;;;;;;;-2.13;82.41;99347.30;103795;1318;22595;-82
2021/12/13 10:21:49;;;;;;;141.70;63.00;;;;;;;-2.04;82.50;99343.30;103362;1323;138020;-82
2021/12/13 10:24:25;;;;;;;141.50;63.80;;;;;;;-1.94;82.87;99349.96;103334;1320;24369;-84
2021/12/13 10:26:55;;;;;;;147.50;62.50;;;;;;;-1.83;82.71;99353.76;103738;1319;22587;-84
2021/12/13 10:29:24;;;;;;;143.60;61.10;;;;;;;-1.74;82.59;99346.88;103437;1320;139142;-82
2021/12/13 10:32:24;;;;;;;142.00;63.50;;;;;;;-1.62;82.76;99348.40;103645;1319;22742;-84
2021/12/13 10:34:59;;;;;;;130.80;60.70;;;;;;;-1.47;82.55;99342.00;103480;1316;137968;-85
2021/12/13 10:37:37;;;;;;;133.90;62.50;;;;;;;-1.38;82.26;99342.95;103748;1319;25342;-85
2021/12/13 10:40:27;;;;;;;128.20;59.40;;;;;;;-1.27;82.66;99341.08;103475;1319;138111;-84
2021/12/13 10:43:03;;;;;;;115.70;53.90;;;;;;;-1.12;82.72;99334.42;103413;1316;22755;-85
2021/12/13 10:45:43;;;;;;;119.50;55.50;;;;;;;-1.00;82.45;99333.06;103682;1322;29280;-85
2021/12/13 10:48:14;;;;;;;116.20;53.80;;;;;;;-0.87;82.12;99330.04;103257;1323;139135;-85
2021/12/13 10:50:52;;;;;;;131.00;53.70;;;;;;;-0.72;82.15;99332.91;103546;1316;22803;-85
2021/12/13 10:53:24;;;;;;;107.10;51.60;;;;;;;-0.61;81.73;99327.63;103663;1316;138285;-85
2021/12/13 10:55:58;;;;;;;106.50;51.50;;;;;;;-0.53;81.56;99328.87;103340;1322;146664;-85
2021/12/13 10:58:30;;;;;;;106.30;51.50;;;;;;;-0.46;81.75;99324.75;103457;1322;23941;-86
2021/12/13 11:01:07;;;;;;;123.00;55.00;;;;;;;-0.40;81.31;99324.39;103224;1323;22729;-85
2021/12/13 11:03:36;;;;;;;107.50;51.60;;;;;;;-0.39;80.92;99323.30;103316;1322;137815;-85
2021/12/13 11:06:06;;;;;;;122.50;55.50;;;;;;;-0.36;81.09;99320.95;103255;1322;138464;-85
2021/12/13 11:08:33;;;;;;;;;;;;;;;-0.33;80.85;99322.58;103551;1319;23454;-85
2021/12/13 11:11:07;;;;;;;114.70;54.00;;;;;;;-0.30;80.88;99319.44;103416;1324;22703;-85
2021/12/13 11:13:40;;;;;;;113.40;52.00;;;;;;;-0.24;80.81;99319.02;103364;1319;138027;-85
2021/12/13 11:16:22;;;;;;;111.70;52.90;;;;;;;-0.18;80.90;99316.96;103379;1326;22887;-85
2021/12/13 11:18:54;;;;;;;112.80;50.80;;;;;;;-0.10;81.12;99313.48;103566;1321;137905;-86
2021/12/13 11:21:40;;;;;;;106.60;50.00;;;;;;;-0.01;80.94;99309.22;103717;1321;22646;-86
2021/12/13 11:24:14;;;;;;;104.60;50.40;;;;;;;0.07;80.67;99310.40;103864;1318;138193;-85
2021/12/13 11:26:46;;;;;;;108.40;49.90;;;;;;;0.13;80.77;99305.24;103427;1324;23217;-85
2021/12/13 11:29:15;;;;;;;108.90;50.50;;;;;;;0.20;80.85;99304.23;103542;1319;22587;-86
2021/12/13 11:31:42;;;;;;;;;;;;;;;0.27;80.22;99305.50;103939;1318;138461;-86
2021/12/13 11:34:53;;;;;;;102.20;48.00;;;;;;;0.31;80.06;99303.64;103773;1321;25411;-86
2021/12/13 11:38:03;;;;;;;99.20;46.70;;;;;;;0.35;80.00;99304.95;103445;1316;138153;-86
2021/12/13 11:41:08;;;;;;;112.60;51.40;;;;;;;0.44;80.07;99306.08;103713;1320;23359;-85
2021/12/13 11:44:22;;;;;;;108.20;50.70;;;;;;;0.50;80.00;99303.43;103595;1321;137496;-85
2021/12/13 11:47:14;;;;;;;110.70;52.40;;;;;;;0.53;79.48;99302.58;104244;1318;23675;-85
2021/12/13 11:49:44;;;;;;;107.50;47.80;;;;;;;0.58;79.70;99299.28;103760;1319;138043;-85
2021/12/13 11:52:11;;;;;;;115.00;52.00;;;;;;;0.60;79.69;99293.84;103591;1318;22578;-85
2021/12/13 11:55:06;;;;;;;111.30;52.80;;;;;;;0.62;79.41;99292.53;103481;1319;138890;-85
2021/12/13 11:57:36;;;;;;;117.10;53.70;;;;;;;0.69;79.08;99289.15;103665;1319;24323;-85
2021/12/13 12:00:31;;;;;;;121.00;57.50;;;;;;;0.74;79.07;99285.20;103525;1319;137712;-85